Time;durP1;ratioP1;P1;durP2;ratioP2;P2;SDS_P1;SDS_P2;PMS_P1;PMS_P2;Temp;Humidity;BMP_temperature;BMP_pressure;BME280_temperature;BME280_humidity;BME280_pressure;Samples;Min_cycle;Max_cycle;Signal;HPM_P1;HPM_P2
2023/04/06 00:01:08;;;;;;;;;;;;;;;;;;107542;1250;22501;-78
2023/04/06 00:03:34;;;;;;;79.70;42.20;;;;;;;;;;107564;1253;22527;-78
2023/04/06 00:06:01;;;;;;;87.50;41.60;;;;;;;;;;107549;1253;22548;-78
2023/04/06 00:08:28;;;;;;;87.30;45.30;;;;;;;;;;107548;1250;22515;-77
2023/04/06 00:10:54;;;;;;;81.70;41.30;;;;;;;;;;107577;1251;25312;-78
2023/04/06 00:13:21;;;;;;;77.40;39.80;;;;;;;;;;107533;1252;25221;-78
2023/04/06 00:15:47;;;;;;;82.40;42.70;;;;;;;;;;107604;1250;23748;-78
2023/04/06 00:18:13;;;;;;;84.20;41.50;;;;;;;;;;107574;1249;22525;-77
2023/04/06 00:20:40;;;;;;;85.40;43.00;;;;;;;;;;110274;1249;22185;-78
2023/04/06 00:23:06;;;;;;;92.00;41.80;;;;;;;;;;110898;1249;22520;-79
2023/04/06 00:25:33;;;;;;;82.20;40.90;;;;;;;;;;110864;1250;22476;-79
2023/04/06 00:27:59;;;;;;;96.70;45.00;;;;;;;;;;110881;1249;23512;-78
2023/04/06 00:30:25;;;;;;;94.60;49.70;;;;;;;;;;110921;1249;22481;-79
2023/04/06 00:32:51;;;;;;;123.50;54.00;;;;;;;;;;110892;1249;22450;-79
2023/04/06 00:35:18;;;;;;;103.30;50.30;;;;;;;;;;110874;1249;22221;-78
2023/04/06 00:37:45;;;;;;;106.60;54.70;;;;;;;;;;110874;1249;22346;-78
2023/04/06 00:40:12;;;;;;;100.90;53.00;;;;;;;;;;108225;1250;25349;-77
2023/04/06 00:42:38;;;;;;;102.20;50.90;;;;;;;;;;108253;1249;25303;-79
2023/04/06 00:45:05;;;;;;;97.10;48.80;;;;;;;;;;107587;1249;22650;-77
2023/04/06 00:47:31;;;;;;;99.20;46.30;;;;;;;;;;107560;1251;22663;-77
2023/04/06 00:49:58;;;;;;;88.50;43.20;;;;;;;;;;107611;1250;22562;-77
2023/04/06 00:52:24;;;;;;;97.90;44.20;;;;;;;;;;107573;1250;23719;-77
2023/04/06 00:54:50;;;;;;;81.90;40.40;;;;;;;;;;107571;1251;25223;-78
2023/04/06 00:57:17;;;;;;;84.20;38.50;;;;;;;;;;107586;1252;22541;-79
2023/04/06 00:59:44;;;;;;;78.90;42.20;;;;;;;;;;107519;1250;22526;-77
2023/04/06 01:02:11;;;;;;;83.30;43.60;;;;;;;;;;107640;1251;25325;-77
2023/04/06 01:04:37;;;;;;;79.40;41.30;;;;;;;;;;110993;1250;22609;-78
2023/04/06 01:07:04;;;;;;;85.50;45.80;;;;;;;;;;107806;1251;23763;-79
2023/04/06 01:09:30;;;;;;;79.10;43.00;;;;;;;;;;107688;1250;26436;-77
2023/04/06 01:11:57;;;;;;;84.60;42.90;;;;;;;;;;107707;1250;23739;-78
2023/04/06 01:14:24;;;;;;;88.50;49.50;;;;;;;;;;107735;1250;22647;-79
2023/04/06 01:16:50;;;;;;;91.20;47.40;;;;;;;;;;107733;1251;22520;-78
2023/04/06 01:19:16;;;;;;;91.60;47.10;;;;;;;;;;107728;1250;22522;-79
2023/04/06 01:21:43;;;;;;;90.70;49.00;;;;;;;;;;107721;1251;22629;-77
2023/04/06 01:24:09;;;;;;;88.60;46.20;;;;;;;;;;107582;1254;22641;-78
2023/04/06 01:26:36;;;;;;;91.60;45.10;;;;;;;;;;107709;1250;22528;-78
2023/04/06 01:29:02;;;;;;;84.40;43.90;;;;;;;;;;107657;1249;22538;-78
2023/04/06 01:31:29;;;;;;;90.90;44.00;;;;;;;;;;107589;1249;25302;-79
2023/04/06 01:33:55;;;;;;;84.60;45.20;;;;;;;;;;107560;1252;22539;-77
2023/04/06 01:36:22;;;;;;;99.50;51.20;;;;;;;;;;107625;1250;24188;-77
2023/04/06 01:38:48;;;;;;;88.70;45.50;;;;;;;;;;107622;1249;23896;-77
2023/04/06 01:41:14;;;;;;;83.80;44.30;;;;;;;;;;107542;1250;22519;-78
2023/04/06 01:43:41;;;;;;;97.40;43.80;;;;;;;;;;107614;1250;22534;-79
2023/04/06 01:46:07;;;;;;;100.10;49.00;;;;;;;;;;107559;1250;24193;-79
2023/04/06 01:48:34;;;;;;;86.90;41.80;;;;;;;;;;107579;1250;24248;-77
2023/04/06 01:51:01;;;;;;;80.50;41.70;;;;;;;;;;107602;1250;26469;-78
2023/04/06 01:53:27;;;;;;;78.60;41.40;;;;;;;;;;107603;1250;22535;-77
2023/04/06 01:55:54;;;;;;;81.90;40.10;;;;;;;;;;107596;1249;24251;-78
2023/04/06 01:58:20;;;;;;;75.80;40.10;;;;;;;;;;107552;1249;22527;-79
2023/04/06 02:00:46;;;;;;;77.50;39.80;;;;;;;;;;107480;1250;22532;-77
2023/04/06 02:03:14;;;;;;;69.60;36.90;;;;;;;;;;107544;1249;22523;-77
2023/04/06 02:05:41;;;;;;;68.60;31.10;;;;;;;;;;107603;1253;25390;-77
2023/04/06 02:08:07;;;;;;;74.10;40.10;;;;;;;;;;107597;1250;22532;-77
2023/04/06 02:10:33;;;;;;;71.30;38.40;;;;;;;;;;107592;1250;22547;-78
2023/04/06 02:13:00;;;;;;;76.00;39.60;;;;;;;;;;107565;1250;22586;-77
2023/04/06 02:15:26;;;;;;;81.30;39.10;;;;;;;;;;107557;1249;22526;-77
2023/04/06 02:17:53;;;;;;;79.40;39.20;;;;;;;;;;107556;1249;22613;-80
2023/04/06 02:20:19;;;;;;;78.30;36.80;;;;;;;;;;107583;1250;22603;-78
2023/04/06 02:22:46;;;;;;;76.40;37.90;;;;;;;;;;110249;1249;22878;-78
2023/04/06 02:25:12;;;;;;;72.10;35.20;;;;;;;;;;110737;1249;22342;-79
2023/04/06 02:27:39;;;;;;;72.70;36.40;;;;;;;;;;107990;1253;22500;-77
2023/04/06 02:30:05;;;;;;;74.00;36.30;;;;;;;;;;107589;1251;22644;-79
2023/04/06 02:32:32;;;;;;;83.60;41.20;;;;;;;;;;107689;1253;22534;-77
2023/04/06 02:35:00;;;;;;;83.50;42.80;;;;;;;;;;109285;1249;22992;-79
2023/04/06 02:37:26;;;;;;;79.80;40.30;;;;;;;;;;110914;1249;23054;-78
2023/04/06 02:39:52;;;;;;;75.20;37.90;;;;;;;;;;109595;1249;23982;-77
2023/04/06 02:42:19;;;;;;;74.70;37.60;;;;;;;;;;107561;1252;22522;-77
2023/04/06 02:44:45;;;;;;;73.20;36.70;;;;;;;;;;107600;1250;23302;-79
2023/04/06 02:47:12;;;;;;;72.70;37.70;;;;;;;;;;107583;1250;23374;-78
2023/04/06 02:49:38;;;;;;;76.20;38.50;;;;;;;;;;108844;1249;22961;-78
2023/04/06 02:52:04;;;;;;;70.80;36.10;;;;;;;;;;109481;1249;25424;-77
2023/04/06 02:54:31;;;;;;;75.50;39.80;;;;;;;;;;107585;1249;22538;-78
2023/04/06 02:56:57;;;;;;;76.30;40.80;;;;;;;;;;107528;1250;23293;-78
2023/04/06 02:59:24;;;;;;;65.70;37.20;;;;;;;;;;107542;1250;22513;-77
2023/04/06 03:01:50;;;;;;;75.60;35.20;;;;;;;;;;107603;1250;23745;-77
2023/04/06 03:04:17;;;;;;;64.60;31.60;;;;;;;;;;107631;1250;24222;-78
2023/04/06 03:06:43;;;;;;;64.10;32.60;;;;;;;;;;107685;1250;22533;-79
2023/04/06 03:09:10;;;;;;;71.00;33.20;;;;;;;;;;107562;1250;24065;-79
2023/04/06 03:11:36;;;;;;;65.60;36.30;;;;;;;;;;107609;1249;25263;-77
2023/04/06 03:14:02;;;;;;;77.30;39.00;;;;;;;;;;108027;1250;22250;-78
2023/04/06 03:16:29;;;;;;;65.70;33.30;;;;;;;;;;110957;1248;22894;-79
2023/04/06 03:18:55;;;;;;;69.10;34.60;;;;;;;;;;109190;1250;22653;-79
2023/04/06 03:21:21;;;;;;;71.30;36.70;;;;;;;;;;110905;1249;22488;-79
2023/04/06 03:23:50;;;;;;;73.50;33.60;;;;;;;;;;107756;1250;23180;-78
2023/04/06 03:26:17;;;;;;;;;;;;;;;;;;110908;1249;22536;-79
2023/04/06 03:28:43;;;;;;;63.90;32.10;;;;;;;;;;110904;1249;22350;-79
2023/04/06 03:31:10;;;;;;;69.80;35.40;;;;;;;;;;110860;1249;22248;-78
2023/04/06 03:33:36;;;;;;;66.80;34.30;;;;;;;;;;107606;1249;25685;-77
2023/04/06 03:36:03;;;;;;;74.00;34.70;;;;;;;;;;107528;1249;22514;-78
2023/04/06 03:38:29;;;;;;;68.10;33.80;;;;;;;;;;107550;1250;23946;-77
2023/04/06 03:40:55;;;;;;;68.50;33.30;;;;;;;;;;107585;1249;22536;-79
2023/04/06 03:43:22;;;;;;;70.00;36.00;;;;;;;;;;107534;1250;24213;-77
2023/04/06 03:45:48;;;;;;;71.50;35.00;;;;;;;;;;107580;1249;22522;-76
2023/04/06 03:48:15;;;;;;;62.00;32.80;;;;;;;;;;107618;1250;24212;-76
2023/04/06 03:50:41;;;;;;;79.70;43.30;;;;;;;;;;107596;1250;25529;-76
2023/04/06 03:53:08;;;;;;;69.70;37.80;;;;;;;;;;107555;1250;22521;-78
2023/04/06 03:55:35;;;;;;;72.60;39.40;;;;;;;;;;107592;1250;22668;-78
2023/04/06 03:58:02;;;;;;;74.60;36.50;;;;;;;;;;107598;1251;25503;-78
2023/04/06 04:00:28;;;;;;;73.40;36.70;;;;;;;;;;107540;1249;22511;-78
2023/04/06 04:02:55;;;;;;;68.00;32.90;;;;;;;;;;109520;1249;23131;-77
2023/04/06 04:05:24;;;;;;;58.40;32.00;;;;;;;;;;110073;1249;22135;-77
2023/04/06 04:07:51;;;;;;;65.60;36.30;;;;;;;;;;109881;1249;25378;-77
2023/04/06 04:10:18;;;;;;;65.50;31.80;;;;;;;;;;107668;1250;25454;-77
2023/04/06 04:12:44;;;;;;;75.30;34.40;;;;;;;;;;108783;1249;23056;-77
2023/04/06 04:15:11;;;;;;;63.80;34.10;;;;;;;;;;109485;1249;22771;-78
2023/04/06 04:17:37;;;;;;;70.90;37.10;;;;;;;;;;107628;1250;26037;-77
2023/04/06 04:20:04;;;;;;;68.70;35.50;;;;;;;;;;107694;1250;25616;-78
2023/04/06 04:22:31;;;;;;;104.90;48.80;;;;;;;;;;107570;1250;22517;-76
2023/04/06 04:24:58;;;;;;;137.70;55.10;;;;;;;;;;107567;1249;25285;-76
2023/04/06 04:27:24;;;;;;;117.30;53.50;;;;;;;;;;107578;1250;22531;-76
2023/04/06 04:29:51;;;;;;;112.10;52.50;;;;;;;;;;107621;1249;25336;-78
2023/04/06 04:32:17;;;;;;;106.20;52.20;;;;;;;;;;107532;1252;26464;-76
2023/04/06 04:34:44;;;;;;;100.80;50.10;;;;;;;;;;107661;1250;24243;-77
2023/04/06 04:37:10;;;;;;;102.00;46.50;;;;;;;;;;107598;1252;25337;-78
2023/04/06 04:39:36;;;;;;;100.30;47.40;;;;;;;;;;107605;1250;23174;-79
2023/04/06 04:42:03;;;;;;;94.40;48.20;;;;;;;;;;107554;1249;22514;-78
2023/04/06 04:44:29;;;;;;;93.50;49.80;;;;;;;;;;107547;1249;22538;-77
2023/04/06 04:46:56;;;;;;;82.20;50.90;;;;;;;;;;107556;1249;23235;-78
2023/04/06 04:49:22;;;;;;;87.70;51.10;;;;;;;;;;107599;1250;25346;-78
2023/04/06 04:51:52;;;;;;;91.30;52.40;;;;;;;;;;107575;1250;22680;-78
2023/04/06 04:54:19;;;;;;;94.90;53.00;;;;;;;;;;107561;1250;23746;-76
2023/04/06 04:56:45;;;;;;;93.90;53.70;;;;;;;;;;107570;1249;24242;-78
2023/04/06 04:59:11;;;;;;;95.10;50.80;;;;;;;;;;107559;1252;22543;-77
2023/04/06 05:01:38;;;;;;;91.50;50.10;;;;;;;;;;107541;1250;22527;-78
2023/04/06 05:04:04;;;;;;;86.70;47.40;;;;;;;;;;108082;1250;22413;-80
2023/04/06 05:06:31;;;;;;;81.90;43.00;;;;;;;;;;107861;1252;22524;-80
2023/04/06 05:08:57;;;;;;;90.40;45.50;;;;;;;;;;107607;1250;23005;-77
2023/04/06 05:11:23;;;;;;;92.80;46.10;;;;;;;;;;107561;1249;24223;-77
2023/04/06 05:13:49;;;;;;;80.90;44.70;;;;;;;;;;107528;1250;22539;-78
2023/04/06 05:16:16;;;;;;;94.90;47.10;;;;;;;;;;107628;1250;25531;-77
2023/04/06 05:18:42;;;;;;;98.00;47.30;;;;;;;;;;107742;1253;23045;-78
2023/04/06 05:21:10;;;;;;;95.40;50.90;;;;;;;;;;107858;1250;22545;-79
2023/04/06 05:23:36;;;;;;;102.70;52.80;;;;;;;;;;107645;1250;22515;-78
2023/04/06 05:26:02;;;;;;;108.50;58.40;;;;;;;;;;107863;1252;25881;-78
2023/04/06 05:28:29;;;;;;;119.30;62.70;;;;;;;;;;107930;1250;22517;-78
2023/04/06 05:30:56;;;;;;;101.20;57.10;;;;;;;;;;107969;1249;23677;-79
2023/04/06 05:33:23;;;;;;;107.10;59.20;;;;;;;;;;107632;1250;23794;-78
2023/04/06 05:35:49;;;;;;;103.70;55.40;;;;;;;;;;107833;1249;25413;-78
2023/04/06 05:38:16;;;;;;;101.70;56.00;;;;;;;;;;107835;1250;23218;-77
2023/04/06 05:40:42;;;;;;;109.40;56.80;;;;;;;;;;107739;1250;25384;-78
2023/04/06 05:43:08;;;;;;;124.80;63.70;;;;;;;;;;107617;1250;22709;-78
2023/04/06 05:45:35;;;;;;;143.00;73.30;;;;;;;;;;107998;1250;24253;-79
2023/04/06 05:48:02;;;;;;;131.20;60.80;;;;;;;;;;107911;1249;22534;-78
2023/04/06 05:50:28;;;;;;;100.20;53.80;;;;;;;;;;107757;1250;22545;-78
2023/04/06 05:52:55;;;;;;;100.20;51.60;;;;;;;;;;107648;1249;24884;-77
2023/04/06 05:55:21;;;;;;;99.10;44.30;;;;;;;;;;107629;1252;22530;-77
2023/04/06 05:57:48;;;;;;;120.40;56.10;;;;;;;;;;107910;1252;22517;-77
2023/04/06 06:00:14;;;;;;;111.80;54.70;;;;;;;;;;107697;1249;25310;-77
2023/04/06 06:02:42;;;;;;;111.20;56.60;;;;;;;;;;107668;1249;24252;-77
2023/04/06 06:05:09;;;;;;;139.30;63.40;;;;;;;;;;108027;1254;24548;-77
2023/04/06 06:07:36;;;;;;;120.30;58.10;;;;;;;;;;107942;1248;25205;-78
2023/04/06 06:10:02;;;;;;;104.30;56.10;;;;;;;;;;108194;1252;22570;-79
2023/04/06 06:12:28;;;;;;;106.20;57.40;;;;;;;;;;107950;1250;25494;-78
2023/04/06 06:14:55;;;;;;;108.90;55.90;;;;;;;;;;107677;1250;22515;-78
2023/04/06 06:17:21;;;;;;;160.80;70.60;;;;;;;;;;107639;1250;25286;-78
2023/04/06 06:19:48;;;;;;;222.00;85.80;;;;;;;;;;108258;1250;23309;-79
2023/04/06 06:22:14;;;;;;;211.40;87.90;;;;;;;;;;107649;1253;22521;-78
2023/04/06 06:24:40;;;;;;;129.80;60.10;;;;;;;;;;107609;1251;22527;-78
2023/04/06 06:27:07;;;;;;;118.20;56.60;;;;;;;;;;107638;1249;26348;-79
2023/04/06 06:29:34;;;;;;;88.60;50.30;;;;;;;;;;107762;1250;26473;-79
2023/04/06 06:32:00;;;;;;;51.60;27.60;;;;;;;;;;107785;1249;23277;-77
2023/04/06 06:34:26;;;;;;;39.40;24.60;;;;;;;;;;107645;1250;22517;-77
2023/04/06 06:36:55;;;;;;;43.40;25.70;;;;;;;;;;107645;1250;25386;-79
2023/04/06 06:39:21;;;;;;;43.30;25.60;;;;;;;;;;107729;1250;25457;-77
2023/04/06 06:41:47;;;;;;;30.10;19.10;;;;;;;;;;107990;1250;25368;-79
2023/04/06 06:44:14;;;;;;;30.30;17.10;;;;;;;;;;107934;1249;22545;-77
2023/04/06 06:46:40;;;;;;;29.40;15.90;;;;;;;;;;107884;1250;25181;-79
2023/04/06 06:49:06;;;;;;;23.70;15.30;;;;;;;;;;107874;1250;22542;-79
2023/04/06 06:51:33;;;;;;;25.90;15.20;;;;;;;;;;107804;1250;25378;-78
2023/04/06 06:53:59;;;;;;;19.40;13.40;;;;;;;;;;107771;1249;23725;-79
2023/04/06 06:56:27;;;;;;;22.80;13.30;;;;;;;;;;107783;1250;24258;-77
2023/04/06 06:58:54;;;;;;;20.50;11.30;;;;;;;;;;107698;1250;24347;-79
2023/04/06 07:01:20;;;;;;;18.50;11.60;;;;;;;;;;107758;1250;22517;-79
2023/04/06 07:03:47;;;;;;;20.10;11.50;;;;;;;;;;107755;1250;22861;-79
2023/04/06 07:06:13;;;;;;;25.20;12.90;;;;;;;;;;107646;1250;24219;-79
2023/04/06 07:08:40;;;;;;;27.10;14.70;;;;;;;;;;107893;1250;25285;-77
2023/04/06 07:11:06;;;;;;;19.90;12.60;;;;;;;;;;107968;1250;24210;-79
2023/04/06 07:13:32;;;;;;;26.60;13.10;;;;;;;;;;107778;1250;25448;-78
2023/04/06 07:15:59;;;;;;;23.50;12.80;;;;;;;;;;107709;1252;22670;-79
2023/04/06 07:18:25;;;;;;;19.10;12.10;;;;;;;;;;107695;1250;22526;-78
2023/04/06 07:20:51;;;;;;;32.60;18.10;;;;;;;;;;107725;1250;22651;-79
2023/04/06 07:23:18;;;;;;;28.10;15.80;;;;;;;;;;107674;1250;23275;-79
2023/04/06 07:25:44;;;;;;;19.30;10.60;;;;;;;;;;107646;1252;23183;-79
2023/04/06 07:28:10;;;;;;;16.30;10.30;;;;;;;;;;107617;1250;24350;-79
2023/04/06 07:30:37;;;;;;;17.90;9.40;;;;;;;;;;107769;1250;22612;-77
2023/04/06 07:33:05;;;;;;;13.90;9.10;;;;;;;;;;107652;1250;24173;-79
2023/04/06 07:35:32;;;;;;;17.40;10.20;;;;;;;;;;107685;1253;25255;-80
2023/04/06 07:37:58;;;;;;;16.20;9.50;;;;;;;;;;107741;1252;22553;-79
2023/04/06 07:40:25;;;;;;;20.10;9.40;;;;;;;;;;107820;1250;25407;-79
2023/04/06 07:42:52;;;;;;;15.70;9.00;;;;;;;;;;107818;1249;24283;-79
2023/04/06 07:45:19;;;;;;;19.50;10.40;;;;;;;;;;107729;1249;22538;-77
2023/04/06 07:47:45;;;;;;;14.20;9.30;;;;;;;;;;107835;1249;22517;-79
2023/04/06 07:50:12;;;;;;;19.80;11.30;;;;;;;;;;107904;1252;25388;-77
2023/04/06 07:52:38;;;;;;;16.00;8.30;;;;;;;;;;107862;1250;24237;-78
2023/04/06 07:55:04;;;;;;;16.50;9.00;;;;;;;;;;108072;1250;22545;-77
2023/04/06 07:57:31;;;;;;;20.50;11.60;;;;;;;;;;107779;1250;22622;-77
2023/04/06 07:59:58;;;;;;;14.30;9.00;;;;;;;;;;107945;1253;22639;-77
2023/04/06 08:02:24;;;;;;;11.60;7.30;;;;;;;;;;107740;1250;24215;-77
2023/04/06 08:04:50;;;;;;;15.90;10.10;;;;;;;;;;107784;1250;22525;-78
2023/04/06 08:07:17;;;;;;;14.60;8.80;;;;;;;;;;107786;1250;22700;-78
2023/04/06 08:09:43;;;;;;;28.70;13.10;;;;;;;;;;107894;1250;24222;-77
2023/04/06 08:12:09;;;;;;;39.10;17.70;;;;;;;;;;107623;1250;25387;-79
2023/04/06 08:14:36;;;;;;;40.40;18.90;;;;;;;;;;107577;1248;22703;-79
2023/04/06 08:17:02;;;;;;;25.20;12.60;;;;;;;;;;107618;1248;24193;-78
2023/04/06 08:19:28;;;;;;;15.80;9.20;;;;;;;;;;107701;1250;24105;-79
2023/04/06 08:21:55;;;;;;;25.30;7.50;;;;;;;;;;107572;1250;22519;-77
2023/04/06 08:24:21;;;;;;;15.50;10.40;;;;;;;;;;107661;1250;24194;-77
2023/04/06 08:26:48;;;;;;;14.70;8.00;;;;;;;;;;107761;1250;25391;-77
2023/04/06 08:29:15;;;;;;;14.50;7.80;;;;;;;;;;109367;1247;22419;-79
2023/04/06 08:31:42;;;;;;;12.80;8.90;;;;;;;;;;108064;1250;22528;-77
2023/04/06 08:34:08;;;;;;;16.40;7.20;;;;;;;;;;107781;1250;22660;-79
2023/04/06 08:36:35;;;;;;;18.10;9.00;;;;;;;;;;107752;1250;22608;-77
2023/04/06 08:39:01;;;;;;;17.60;9.30;;;;;;;;;;107876;1250;22518;-77
2023/04/06 08:41:27;;;;;;;13.60;7.10;;;;;;;;;;107659;1250;22531;-77
2023/04/06 08:43:58;;;;;;;30.80;13.40;;;;;;;;;;107587;1249;22570;-79
2023/04/06 08:46:29;;;;;;;17.00;8.80;;;;;;;;;;107697;1253;22529;-77
2023/04/06 08:49:00;;;;;;;16.10;9.60;;;;;;;;;;107664;1249;23333;-77
2023/04/06 08:51:27;;;;;;;40.10;18.10;;;;;;;;;;107684;1249;22564;-78
2023/04/06 08:53:56;;;;;;;17.50;10.00;;;;;;;;;;107719;1250;23692;-77
2023/04/06 08:56:23;;;;;;;15.60;8.70;;;;;;;;;;107619;1250;25287;-79
2023/04/06 08:58:50;;;;;;;12.00;8.70;;;;;;;;;;107957;1251;25285;-76
2023/04/06 09:01:17;;;;;;;17.50;10.00;;;;;;;;;;107943;1251;25397;-79
2023/04/06 09:03:43;;;;;;;14.30;8.80;;;;;;;;;;107928;1248;22602;-76
2023/04/06 09:06:10;;;;;;;21.80;14.20;;;;;;;;;;107993;1252;26069;-77
2023/04/06 09:08:38;;;;;;;14.40;9.10;;;;;;;;;;107830;1250;22532;-77
2023/04/06 09:11:04;;;;;;;11.40;7.60;;;;;;;;;;107728;1250;22593;-79
2023/04/06 09:13:31;;;;;;;13.80;9.00;;;;;;;;;;107872;1250;22534;-76
2023/04/06 09:15:58;;;;;;;19.30;8.90;;;;;;;;;;107615;1250;25465;-77
2023/04/06 09:18:31;;;;;;;21.40;9.80;;;;;;;;;;107539;1250;24375;-79
2023/04/06 09:21:00;;;;;;;12.00;7.00;;;;;;;;;;107595;1252;22640;-79
2023/04/06 09:23:27;;;;;;;11.30;6.30;;;;;;;;;;107526;1250;25224;-79
2023/04/06 09:26:09;;;;;;;14.90;8.30;;;;;;;;;;107502;1250;22528;-77
2023/04/06 09:28:41;;;;;;;12.60;7.00;;;;;;;;;;107521;1248;22547;-79
2023/04/06 09:31:09;;;;;;;15.00;9.40;;;;;;;;;;107405;1248;24412;-80
2023/04/06 09:33:40;;;;;;;12.40;7.20;;;;;;;;;;107502;1250;25337;-77
2023/04/06 09:36:09;;;;;;;16.30;8.60;;;;;;;;;;107534;1250;23014;-77
2023/04/06 09:38:50;;;;;;;15.30;9.40;;;;;;;;;;107497;1250;25325;-77
2023/04/06 09:41:20;;;;;;;13.90;9.10;;;;;;;;;;107482;1252;22507;-80
2023/04/06 09:43:47;;;;;;;13.00;7.80;;;;;;;;;;107590;1252;22519;-79
2023/04/06 09:46:13;;;;;;;41.60;15.80;;;;;;;;;;107467;1250;24279;-78
2023/04/06 09:48:39;;;;;;;13.50;8.00;;;;;;;;;;107534;1250;26173;-78
2023/04/06 09:51:06;;;;;;;10.90;7.30;;;;;;;;;;107563;1250;22529;-77
2023/04/06 09:53:32;;;;;;;11.40;7.70;;;;;;;;;;107499;1250;23181;-78
2023/04/06 09:56:00;;;;;;;15.60;8.50;;;;;;;;;;107454;1250;22533;-79
2023/04/06 09:58:26;;;;;;;13.00;8.80;;;;;;;;;;107634;1250;22514;-78
2023/04/06 10:01:01;;;;;;;14.80;8.10;;;;;;;;;;107685;1252;22545;-77
2023/04/06 10:03:31;;;;;;;11.00;6.80;;;;;;;;;;107848;1249;22987;-77
2023/04/06 10:05:59;;;;;;;11.60;7.70;;;;;;;;;;107829;1249;24220;-77
2023/04/06 10:08:27;;;;;;;17.10;8.20;;;;;;;;;;107716;1250;24224;-78
2023/04/06 10:10:54;;;;;;;12.00;7.50;;;;;;;;;;107719;1250;22530;-77
2023/04/06 10:13:20;;;;;;;13.10;9.60;;;;;;;;;;107602;1254;22519;-78
2023/04/06 10:15:47;;;;;;;21.10;10.80;;;;;;;;;;107645;1250;22518;-78
2023/04/06 10:18:13;;;;;;;31.80;17.10;;;;;;;;;;107463;1250;25443;-76
2023/04/06 10:20:58;;;;;;;12.70;8.40;;;;;;;;;;107488;1250;22544;-77
2023/04/06 10:23:33;;;;;;;14.80;7.90;;;;;;;;;;107504;1253;22570;-76
2023/04/06 10:26:00;;;;;;;12.50;8.40;;;;;;;;;;107536;1250;22536;-79
2023/04/06 10:28:30;;;;;;;13.10;8.40;;;;;;;;;;107449;1250;22863;-78
2023/04/06 10:30:56;;;;;;;12.90;7.90;;;;;;;;;;107655;1250;22532;-79
2023/04/06 10:33:23;;;;;;;11.20;7.50;;;;;;;;;;107684;1250;23198;-77
2023/04/06 10:35:49;;;;;;;17.50;10.20;;;;;;;;;;107520;1249;22562;-79
2023/04/06 10:38:20;;;;;;;15.30;7.60;;;;;;;;;;107537;1250;22580;-77
2023/04/06 10:40:47;;;;;;;15.70;9.10;;;;;;;;;;107747;1250;25324;-79
2023/04/06 10:43:22;;;;;;;15.40;8.90;;;;;;;;;;107648;1250;23436;-79
2023/04/06 10:45:56;;;;;;;13.30;8.00;;;;;;;;;;107565;1250;22520;-79
2023/04/06 10:48:23;;;;;;;10.20;8.20;;;;;;;;;;107784;1249;25503;-78
2023/04/06 10:50:51;;;;;;;16.00;9.70;;;;;;;;;;107916;1250;25201;-79
2023/04/06 10:53:24;;;;;;;12.80;7.60;;;;;;;;;;107837;1250;25292;-77
2023/04/06 10:55:50;;;;;;;16.90;10.00;;;;;;;;;;107522;1250;24215;-77
2023/04/06 10:58:17;;;;;;;12.00;8.30;;;;;;;;;;107925;1248;22548;-79
2023/04/06 11:00:47;;;;;;;12.40;8.70;;;;;;;;;;108025;1253;22537;-77
2023/04/06 11:03:13;;;;;;;13.80;9.00;;;;;;;;;;108021;1250;23027;-78
2023/04/06 11:05:47;;;;;;;13.60;8.90;;;;;;;;;;107821;1250;22553;-77
2023/04/06 11:08:26;;;;;;;13.70;8.50;;;;;;;;;;108076;1250;22545;-78
2023/04/06 11:11:15;;;;;;;12.90;7.40;;;;;;;;;;108005;1250;22627;-77
2023/04/06 11:13:44;;;;;;;15.10;8.80;;;;;;;;;;107942;1250;22535;-79
2023/04/06 11:16:17;;;;;;;13.00;8.30;;;;;;;;;;108097;1250;24254;-77
2023/04/06 11:19:02;;;;;;;14.20;9.80;;;;;;;;;;107652;1250;23771;-77
2023/04/06 11:21:39;;;;;;;18.20;9.20;;;;;;;;;;107640;1248;22631;-78
2023/04/06 11:24:06;;;;;;;16.90;10.00;;;;;;;;;;107519;1250;25507;-77
2023/04/06 11:26:36;;;;;;;11.40;7.90;;;;;;;;;;107497;1248;22519;-76
2023/04/06 11:29:03;;;;;;;15.70;9.10;;;;;;;;;;107601;1251;22535;-79
2023/04/06 11:31:29;;;;;;;19.40;9.60;;;;;;;;;;107526;1250;22543;-77
2023/04/06 11:33:58;;;;;;;16.80;9.70;;;;;;;;;;107487;1252;22523;-77
2023/04/06 11:36:25;;;;;;;;;;;;;;;;;;107511;1250;22496;-78
2023/04/06 11:38:51;;;;;;;18.90;12.20;;;;;;;;;;107774;1250;23698;-77
2023/04/06 11:41:17;;;;;;;16.80;10.70;;;;;;;;;;107508;1250;24220;-79
2023/04/06 11:43:47;;;;;;;25.70;10.30;;;;;;;;;;107477;1250;25201;-78
2023/04/06 11:46:16;;;;;;;19.20;11.20;;;;;;;;;;107639;1250;25388;-76
2023/04/06 11:48:46;;;;;;;19.40;10.80;;;;;;;;;;107652;1248;22543;-78
2023/04/06 11:51:12;;;;;;;20.20;10.80;;;;;;;;;;107705;1250;25415;-78
2023/04/06 11:53:48;;;;;;;22.70;11.50;;;;;;;;;;107587;1249;26385;-77
2023/04/06 11:56:43;;;;;;;18.10;10.50;;;;;;;;;;109888;1249;22517;-78
2023/04/06 11:59:10;;;;;;;27.50;13.00;;;;;;;;;;110731;1249;22489;-77
2023/04/06 12:01:45;;;;;;;21.40;12.30;;;;;;;;;;110831;1252;23092;-77
2023/04/06 12:04:11;;;;;;;23.10;12.90;;;;;;;;;;108297;1250;22618;-77
2023/04/06 12:06:38;;;;;;;28.00;14.20;;;;;;;;;;107721;1250;23285;-78
2023/04/06 12:09:04;;;;;;;22.70;14.10;;;;;;;;;;108198;1250;22186;-77
2023/04/06 12:11:30;;;;;;;24.90;14.40;;;;;;;;;;107856;1250;22514;-78
2023/04/06 12:13:57;;;;;;;31.40;16.10;;;;;;;;;;107683;1250;22547;-77
2023/04/06 12:16:24;;;;;;;33.90;16.70;;;;;;;;;;107639;1250;24200;-78
2023/04/06 12:18:50;;;;;;;39.40;20.80;;;;;;;;;;107719;1250;24532;-77
2023/04/06 12:21:17;;;;;;;42.30;23.00;;;;;;;;;;107761;1250;22538;-78
2023/04/06 12:23:43;;;;;;;39.60;18.40;;;;;;;;;;107638;1254;22636;-77
2023/04/06 12:26:10;;;;;;;50.90;24.80;;;;;;;;;;107645;1253;22554;-79
2023/04/06 12:28:36;;;;;;;32.40;19.50;;;;;;;;;;107838;1250;22535;-77
2023/04/06 12:31:03;;;;;;;27.00;16.00;;;;;;;;;;107776;1253;22533;-78
2023/04/06 12:33:29;;;;;;;25.30;17.00;;;;;;;;;;107616;1252;22514;-78
2023/04/06 12:35:56;;;;;;;29.80;19.50;;;;;;;;;;107741;1250;24090;-78
2023/04/06 12:38:22;;;;;;;29.20;17.40;;;;;;;;;;107775;1250;22653;-76
2023/04/06 12:40:49;;;;;;;30.50;18.30;;;;;;;;;;109255;1250;23172;-79
2023/04/06 12:43:15;;;;;;;118.80;45.70;;;;;;;;;;110762;1253;23226;-78
2023/04/06 12:45:41;;;;;;;76.60;35.10;;;;;;;;;;107819;1251;22520;-78
2023/04/06 12:48:08;;;;;;;122.00;47.90;;;;;;;;;;107728;1250;22575;-78
2023/04/06 12:50:34;;;;;;;135.40;53.10;;;;;;;;;;107809;1250;24199;-78
2023/04/06 12:53:00;;;;;;;89.80;39.60;;;;;;;;;;107684;1251;25387;-76
2023/04/06 12:55:29;;;;;;;59.80;31.80;;;;;;;;;;107745;1250;22525;-79
2023/04/06 12:57:55;;;;;;;56.70;37.20;;;;;;;;;;107664;1248;22705;-77
2023/04/06 13:00:21;;;;;;;75.30;44.60;;;;;;;;;;109117;1251;22527;-79
2023/04/06 13:02:47;;;;;;;95.50;55.50;;;;;;;;;;107670;1249;22527;-77
2023/04/06 13:05:18;;;;;;;51.60;31.40;;;;;;;;;;108620;1249;22565;-77
2023/04/06 13:07:45;;;;;;;58.30;33.70;;;;;;;;;;108184;1250;23085;-76
2023/04/06 13:10:11;;;;;;;35.10;23.90;;;;;;;;;;110788;1249;22365;-78
2023/04/06 13:12:38;;;;;;;37.10;26.40;;;;;;;;;;109175;1250;24185;-77
2023/04/06 13:15:04;;;;;;;59.90;40.10;;;;;;;;;;107682;1250;23276;-79
2023/04/06 13:17:31;;;;;;;37.10;25.60;;;;;;;;;;107873;1250;22523;-78
2023/04/06 13:19:57;;;;;;;31.10;20.30;;;;;;;;;;109473;1250;22428;-79
2023/04/06 13:22:24;;;;;;;29.70;19.10;;;;;;;;;;110780;1250;22438;-79
2023/04/06 13:24:50;;;;;;;27.20;17.60;;;;;;;;;;110767;1250;23133;-77
2023/04/06 13:27:17;;;;;;;31.00;19.30;;;;;;;;;;110838;1250;22452;-79
2023/04/06 13:29:43;;;;;;;31.60;18.70;;;;;;;;;;110745;1250;23031;-79
2023/04/06 13:32:10;;;;;;;34.20;24.40;;;;;;;;;;110745;1250;22504;-78
2023/04/06 13:34:36;;;;;;;33.60;21.20;;;;;;;;;;110732;1250;22504;-77
2023/04/06 13:37:02;;;;;;;31.60;19.50;;;;;;;;;;110773;1250;22594;-77
2023/04/06 13:39:29;;;;;;;35.60;23.00;;;;;;;;;;110794;1250;23494;-79
2023/04/06 13:41:55;;;;;;;32.10;21.10;;;;;;;;;;110788;1253;22362;-77
2023/04/06 13:44:22;;;;;;;50.30;37.10;;;;;;;;;;109554;1249;22581;-76
2023/04/06 13:46:48;;;;;;;36.10;22.80;;;;;;;;;;107707;1252;25243;-78
2023/04/06 13:49:15;;;;;;;278.80;132.30;;;;;;;;;;107658;1249;22564;-78
2023/04/06 13:51:42;;;;;;;184.50;97.70;;;;;;;;;;107724;1251;24888;-78
2023/04/06 13:54:08;;;;;;;68.20;33.60;;;;;;;;;;107866;1250;22524;-78
2023/04/06 13:56:35;;;;;;;80.40;41.50;;;;;;;;;;107645;1256;23968;-76
2023/04/06 13:59:02;;;;;;;52.20;35.40;;;;;;;;;;107538;1253;154640;-76
2023/04/06 14:01:29;;;;;;;39.50;26.90;;;;;;;;;;107831;1251;22516;-79
2023/04/06 14:03:55;;;;;;;29.60;19.60;;;;;;;;;;107689;1248;22522;-79
2023/04/06 14:06:21;;;;;;;32.70;20.30;;;;;;;;;;107572;1253;25399;-80